WEATHER/FLIGHT PLANNING

Hattiesburg Radar

 

 

 

 

Weather Links

Flight Planning Links

 

METAR

2018/12/11 16:53 KHBG 111653Z AUTO 31004KT 10SM CLR 08/M03 A3044 RMK AO2 SLP308 T00781033

TAF

2018/12/11 18:22 TAF KHBG 111720Z 1118/1218 30004KT P6SM SKC